Time;durP1;ratioP1;P1;durP2;ratioP2;P2;SDS_P1;SDS_P2;PMS_P1;PMS_P2;Temp;Humidity;BMP_temperature;BMP_pressure;BME280_temperature;BME280_humidity;BME280_pressure;Samples;Min_cycle;Max_cycle;Signal;HPM_P1;HPM_P2
2023/06/07 00:00:36;;;;;;;8.63;6.43;;;;;;;16.97;70.51;99048.75;4989310;28;20354;-80
2023/06/07 00:03:02;;;;;;;7.93;6.05;;;;;;;16.67;72.64;99055.22;5006279;28;20034;-80
2023/06/07 00:05:27;;;;;;;13.93;6.70;;;;;;;17.32;71.19;99055.69;5003191;28;20636;-80
2023/06/07 00:07:52;;;;;;;10.88;5.65;;;;;;;17.45;70.38;99058.47;5008627;28;20046;-80
2023/06/07 00:10:18;;;;;;;9.82;7.05;;;;;;;17.47;70.13;99050.09;5001861;28;20033;-80
2023/06/07 00:12:43;;;;;;;8.40;6.72;;;;;;;17.43;69.73;99055.25;5007166;28;20044;-80
2023/06/07 00:15:09;;;;;;;8.18;6.45;;;;;;;17.42;69.85;99052.84;5008292;28;20045;-80
2023/06/07 00:17:37;;;;;;;9.40;7.15;;;;;;;17.58;70.43;99057.81;5008544;28;20026;-81
2023/06/07 00:20:04;;;;;;;11.43;6.65;;;;;;;17.34;71.98;99070.50;4969846;28;20937;-80
2023/06/07 00:22:30;;;;;;;7.38;6.50;;;;;;;17.08;71.87;99074.56;5003357;28;20058;-80
2023/06/07 00:24:55;;;;;;;7.05;6.03;;;;;;;17.19;71.72;99059.84;4991234;28;20065;-80
2023/06/07 00:27:21;;;;;;;9.05;6.60;;;;;;;17.23;71.76;99063.59;5007083;28;20033;-81
2023/06/07 00:29:46;;;;;;;8.57;6.93;;;;;;;17.00;72.99;99067.06;5004337;28;20516;-81
2023/06/07 00:32:12;;;;;;;10.25;6.78;;;;;;;16.58;73.64;99061.53;4989390;28;20444;-81
2023/06/07 00:34:37;;;;;;;13.80;7.93;;;;;;;16.42;73.89;99064.28;5002851;28;20120;-80
2023/06/07 00:37:03;;;;;;;10.52;7.10;;;;;;;17.03;72.90;99061.91;5007307;28;20108;-81
2023/06/07 00:39:31;;;;;;;13.95;7.90;;;;;;;16.80;72.27;99049.19;4986429;28;20367;-80
2023/06/07 00:41:57;;;;;;;10.90;6.78;;;;;;;16.58;73.28;99050.75;5015095;28;20084;-81
2023/06/07 00:44:22;;;;;;;10.27;7.03;;;;;;;16.77;73.32;99051.66;4988545;28;20084;-81
2023/06/07 00:46:50;;;;;;;11.95;8.48;;;;;;;16.47;73.75;99056.16;5005528;28;20077;-81
2023/06/07 00:49:16;;;;;;;13.45;8.02;;;;;;;16.12;75.21;99063.69;5007943;28;20107;-80
2023/06/07 00:51:42;;;;;;;9.32;7.38;;;;;;;15.69;76.70;99054.50;4987120;28;20095;-80
2023/06/07 00:54:08;;;;;;;13.15;7.97;;;;;;;16.07;74.76;99055.66;5003585;28;20034;-81
2023/06/07 00:56:35;;;;;;;10.45;7.72;;;;;;;16.05;74.75;99064.00;5007104;28;20029;-80
2023/06/07 00:59:02;;;;;;;9.05;7.55;;;;;;;15.84;75.67;99067.88;5008101;28;20053;-80
2023/06/07 01:01:27;;;;;;;14.18;8.05;;;;;;;15.66;76.36;99065.84;5006178;28;20530;-80
2023/06/07 01:03:53;;;;;;;12.23;7.10;;;;;;;15.91;75.62;99067.56;5006461;28;20132;-80
2023/06/07 01:06:22;;;;;;;11.25;7.50;;;;;;;15.80;75.25;99071.41;5006789;28;20477;-80
2023/06/07 01:08:48;;;;;;;11.25;7.72;;;;;;;15.56;75.85;99055.09;5007741;28;20026;-80
2023/06/07 01:11:14;;;;;;;10.07;8.05;;;;;;;15.90;74.80;99064.06;4989934;28;20405;-80
2023/06/07 01:13:41;;;;;;;11.32;7.47;;;;;;;16.20;73.83;99074.69;5007734;28;20044;-80
2023/06/07 01:16:08;;;;;;;14.35;6.78;;;;;;;16.47;72.85;99071.50;5012543;28;20725;-81
2023/06/07 01:18:33;;;;;;;15.15;6.25;;;;;;;16.51;72.42;99075.31;5026797;28;20420;-79
2023/06/07 01:21:03;;;;;;;11.35;7.72;;;;;;;16.18;73.58;99063.41;5011230;28;20105;-79
2023/06/07 01:23:31;;;;;;;10.80;6.97;;;;;;;16.73;70.93;99066.78;5010533;28;20412;-79
2023/06/07 01:25:58;;;;;;;11.45;7.45;;;;;;;16.46;72.49;99070.72;5007490;28;20037;-79
2023/06/07 01:28:25;;;;;;;8.70;7.30;;;;;;;16.06;74.40;99062.09;5029672;28;20057;-79
2023/06/07 01:30:55;;;;;;;9.55;7.22;;;;;;;15.86;75.22;99070.31;5010324;28;20041;-79
2023/06/07 01:33:21;;;;;;;13.68;6.45;;;;;;;16.25;73.76;99065.78;5004759;28;20041;-79
2023/06/07 01:35:48;;;;;;;11.25;7.78;;;;;;;15.58;75.68;99061.81;5004637;28;20034;-79
2023/06/07 01:38:15;;;;;;;8.63;6.93;;;;;;;16.23;73.34;99065.22;5020804;28;20057;-80
2023/06/07 01:40:43;;;;;;;11.45;7.63;;;;;;;15.80;75.70;99066.81;5006733;28;20061;-81
2023/06/07 01:43:09;;;;;;;11.98;7.50;;;;;;;15.83;75.72;99062.78;5007292;28;20036;-80
2023/06/07 01:45:37;;;;;;;14.27;7.35;;;;;;;15.83;75.74;99068.97;5005271;28;20555;-79
2023/06/07 01:48:04;;;;;;;12.48;8.23;;;;;;;15.51;77.53;99063.16;4992507;28;20040;-79
2023/06/07 01:50:30;;;;;;;7.90;7.10;;;;;;;15.65;76.88;99061.50;5013440;28;20114;-80
2023/06/07 01:52:56;;;;;;;10.18;7.40;;;;;;;15.39;78.31;99060.78;5007934;28;20045;-80
2023/06/07 01:55:22;;;;;;;15.63;9.25;;;;;;;15.37;79.17;99051.38;5007191;28;20034;-80
2023/06/07 01:58:29;;;;;;;13.88;8.80;;;;;;;15.49;78.70;99065.34;5012732;28;20117;-79
2023/06/07 02:00:54;;;;;;;20.38;8.25;;;;;;;16.00;76.17;99064.03;4989659;28;20054;-80
2023/06/07 02:03:35;;;;;;;12.07;7.65;;;;;;;15.91;75.95;99065.69;5014261;28;20030;-80
2023/06/07 02:06:03;;;;;;;16.02;8.88;;;;;;;15.51;78.65;99058.59;4994471;28;20481;-80
2023/06/07 02:08:33;;;;;;;9.77;8.00;;;;;;;16.07;75.81;99064.53;5012841;28;20069;-80
2023/06/07 02:11:02;;;;;;;13.55;7.70;;;;;;;15.73;78.00;99079.78;5008994;28;21499;-80
2023/06/07 02:13:32;;;;;;;12.27;7.68;;;;;;;15.79;76.80;99059.84;5010431;28;20040;-80
2023/06/07 02:15:58;;;;;;;13.95;8.80;;;;;;;15.83;77.20;99058.22;5010229;28;20292;-80
2023/06/07 02:18:24;;;;;;;9.88;8.05;;;;;;;16.04;76.24;99078.53;4991335;28;20482;-80
2023/06/07 02:20:50;;;;;;;9.30;7.32;;;;;;;15.97;75.73;99072.66;5009564;28;20365;-80
2023/06/07 02:23:16;;;;;;;16.70;9.07;;;;;;;15.85;77.30;99074.88;5009533;28;20034;-80
2023/06/07 02:25:41;;;;;;;13.07;8.10;;;;;;;15.55;78.57;99062.34;5006386;28;20389;-80
2023/06/07 02:28:07;;;;;;;14.38;8.60;;;;;;;15.63;78.84;99063.69;5004911;28;20042;-79
2023/06/07 02:30:32;;;;;;;11.68;9.05;;;;;;;15.50;79.68;99070.47;5007792;28;20049;-79
2023/06/07 02:32:57;;;;;;;15.15;9.48;;;;;;;15.47;79.70;99062.94;5006734;28;20044;-79
2023/06/07 02:35:23;;;;;;;10.00;8.93;;;;;;;15.44;80.39;99066.16;5008563;28;20367;-79
2023/06/07 02:37:48;;;;;;;14.07;8.65;;;;;;;15.92;77.00;99067.31;5001875;28;20032;-80
2023/06/07 02:40:14;;;;;;;12.55;7.97;;;;;;;16.00;76.87;99069.41;4991439;28;20041;-80
2023/06/07 02:42:44;;;;;;;13.60;10.00;;;;;;;15.54;79.15;99063.44;5002130;28;20045;-79
2023/06/07 02:45:10;;;;;;;17.58;10.15;;;;;;;15.49;79.93;99060.78;5010341;28;20033;-79
2023/06/07 02:47:36;;;;;;;15.25;8.40;;;;;;;16.13;76.20;99063.41;5006863;28;20029;-81
2023/06/07 02:50:02;;;;;;;15.57;7.85;;;;;;;16.05;76.61;99052.44;4989663;28;20449;-80
2023/06/07 02:52:27;;;;;;;10.63;7.97;;;;;;;16.46;75.12;99065.34;5012512;28;20059;-80
2023/06/07 02:54:53;;;;;;;9.15;8.00;;;;;;;16.49;74.33;99066.66;5003246;28;20033;-80
2023/06/07 02:57:18;;;;;;;16.65;9.43;;;;;;;15.98;77.36;99057.31;5003395;28;20505;-80
2023/06/07 02:59:44;;;;;;;11.02;7.60;;;;;;;16.37;74.70;99061.63;4984511;28;20030;-80
2023/06/07 03:02:10;;;;;;;14.50;7.60;;;;;;;16.67;74.00;99070.59;5018720;28;20967;-80
2023/06/07 03:04:37;;;;;;;9.68;7.47;;;;;;;16.34;75.01;99066.75;5004137;28;20026;-79
2023/06/07 03:07:02;;;;;;;12.85;8.02;;;;;;;16.10;76.66;99063.16;5006227;28;20030;-79
2023/06/07 03:09:28;;;;;;;11.68;8.05;;;;;;;16.63;74.27;99066.84;5007071;28;20075;-80
2023/06/07 03:11:53;;;;;;;13.70;9.18;;;;;;;16.55;74.24;99065.56;5011139;28;20136;-80
2023/06/07 03:14:19;;;;;;;12.45;8.40;;;;;;;16.21;75.70;99062.81;5010627;28;20038;-79
2023/06/07 03:16:45;;;;;;;10.10;8.98;;;;;;;16.34;75.48;99070.25;5010362;28;20526;-80
2023/06/07 03:19:11;;;;;;;10.57;7.97;;;;;;;16.32;75.33;99067.06;5008619;28;20587;-80
2023/06/07 03:21:40;;;;;;;13.98;8.60;;;;;;;16.59;74.60;99071.19;5007346;28;20088;-80
2023/06/07 03:24:06;;;;;;;12.13;9.63;;;;;;;16.28;75.62;99068.69;5012195;28;20389;-79
2023/06/07 03:26:31;;;;;;;10.88;8.70;;;;;;;16.49;75.16;99080.94;5009107;28;20033;-80
2023/06/07 03:28:57;;;;;;;16.00;8.55;;;;;;;16.52;75.07;99073.41;5005585;28;20489;-80
2023/06/07 03:31:23;;;;;;;12.50;8.07;;;;;;;16.78;73.38;99077.50;5005192;28;20466;-80
2023/06/07 03:33:49;;;;;;;11.27;8.38;;;;;;;16.57;74.08;99062.59;5003846;28;20532;-80
2023/06/07 03:36:17;;;;;;;10.55;7.95;;;;;;;16.68;73.48;99067.63;5002922;28;20022;-80
2023/06/07 03:38:42;;;;;;;11.90;7.53;;;;;;;16.88;73.20;99069.34;5003544;28;20026;-80
2023/06/07 03:41:08;;;;;;;13.63;10.65;;;;;;;16.25;76.64;99077.34;5005761;28;20160;-80
2023/06/07 03:43:33;;;;;;;9.80;8.68;;;;;;;16.59;74.93;99081.97;5002961;28;20029;-80
2023/06/07 03:45:59;;;;;;;12.98;8.43;;;;;;;16.95;73.77;99077.91;5001289;28;20044;-80
2023/06/07 03:48:24;;;;;;;9.93;8.40;;;;;;;16.75;74.19;99075.38;5001184;28;20026;-80
2023/06/07 03:50:50;;;;;;;10.57;7.70;;;;;;;16.89;73.22;99066.34;4998666;28;20115;-80
2023/06/07 03:53:16;;;;;;;11.38;9.18;;;;;;;17.09;72.43;99068.06;4987239;28;20041;-80
2023/06/07 03:55:41;;;;;;;11.18;8.80;;;;;;;17.01;72.77;99071.38;4984262;28;20026;-80
2023/06/07 03:58:07;;;;;;;10.82;9.13;;;;;;;16.47;76.33;99079.59;4993197;28;20030;-80
2023/06/07 04:00:33;;;;;;;15.18;11.50;;;;;;;16.12;77.97;99077.94;5005802;28;20037;-80
2023/06/07 04:02:59;;;;;;;12.43;8.18;;;;;;;16.73;74.39;99082.94;5004148;28;20124;-80
2023/06/07 04:05:25;;;;;;;11.80;8.52;;;;;;;16.76;74.14;99087.75;5005648;28;20145;-80
2023/06/07 04:07:50;;;;;;;12.70;9.13;;;;;;;16.59;75.61;99084.66;5007432;28;20186;-80
2023/06/07 04:10:15;;;;;;;15.52;10.18;;;;;;;16.52;75.68;99078.78;5009341;28;20386;-80
2023/06/07 04:12:43;;;;;;;12.25;9.40;;;;;;;16.24;77.77;99088.41;5008338;28;20030;-80
2023/06/07 04:15:09;;;;;;;13.63;9.52;;;;;;;16.55;75.57;99087.13;5007844;28;20026;-80
2023/06/07 04:17:34;;;;;;;10.75;8.63;;;;;;;16.55;75.48;99089.03;5006464;28;20556;-80
2023/06/07 04:19:59;;;;;;;11.70;9.23;;;;;;;16.65;74.41;99087.03;4990180;28;20033;-80
2023/06/07 04:22:26;;;;;;;13.40;8.73;;;;;;;16.87;74.19;99092.78;4992760;28;20033;-81
2023/06/07 04:24:51;;;;;;;14.95;10.77;;;;;;;16.20;77.73;99088.16;5006373;28;20044;-80
2023/06/07 04:27:18;;;;;;;13.35;9.70;;;;;;;16.41;77.31;99089.63;5003936;28;20030;-80
2023/06/07 04:29:44;;;;;;;14.23;10.57;;;;;;;16.27;77.02;99096.72;5013160;28;20029;-80
2023/06/07 04:32:09;;;;;;;13.68;8.73;;;;;;;16.67;75.26;99087.56;5009358;28;20021;-80
2023/06/07 04:34:41;;;;;;;11.60;10.40;;;;;;;16.65;75.08;99078.16;5005270;28;20087;-81
2023/06/07 04:37:07;;;;;;;11.65;10.35;;;;;;;16.44;76.76;99090.97;5006959;28;20119;-81
2023/06/07 04:39:33;;;;;;;16.23;11.02;;;;;;;16.18;78.37;99101.09;5004024;28;20040;-80
2023/06/07 04:42:02;;;;;;;13.38;11.00;;;;;;;16.00;79.54;99093.66;4991251;28;20481;-80
2023/06/07 04:44:29;;;;;;;16.85;10.65;;;;;;;15.94;80.22;99086.69;5009365;28;20113;-80
2023/06/07 04:46:59;;;;;;;15.38;11.05;;;;;;;15.72;80.68;99092.44;5007391;28;20041;-80
2023/06/07 04:49:25;;;;;;;16.27;11.00;;;;;;;15.66;81.34;99090.84;5010769;28;20029;-81
2023/06/07 04:51:52;;;;;;;14.90;12.02;;;;;;;15.77;80.86;99096.97;4995350;28;20037;-80
2023/06/07 04:54:19;;;;;;;14.23;11.25;;;;;;;15.83;81.14;99097.78;5017103;28;20021;-80
2023/06/07 04:56:45;;;;;;;11.57;9.50;;;;;;;15.97;78.67;99094.19;5010241;28;20037;-80
2023/06/07 04:59:11;;;;;;;14.63;12.23;;;;;;;15.68;81.42;99080.59;4990701;28;20042;-80
2023/06/07 05:01:36;;;;;;;11.30;10.20;;;;;;;15.78;80.14;99101.28;5014224;28;20359;-80
2023/06/07 05:04:02;;;;;;;16.50;11.30;;;;;;;16.01;80.26;99103.31;4975735;28;20041;-81
2023/06/07 05:06:29;;;;;;;18.00;11.63;;;;;;;15.96;81.69;99103.38;5012150;28;20125;-80
2023/06/07 05:08:55;;;;;;;14.50;10.55;;;;;;;16.31;78.54;99099.66;5005415;28;20203;-79
2023/06/07 05:11:21;;;;;;;13.82;9.80;;;;;;;16.66;76.24;99101.34;5010430;28;20409;-79
2023/06/07 05:13:49;;;;;;;10.82;9.73;;;;;;;16.57;76.43;99100.31;4988279;28;20026;-79
2023/06/07 05:16:16;;;;;;;13.77;11.75;;;;;;;15.96;81.38;99102.56;4990683;28;20045;-80
2023/06/07 05:18:48;;;;;;;13.88;9.32;;;;;;;16.59;76.91;99107.03;5003150;28;20041;-80
2023/06/07 05:21:17;;;;;;;12.85;10.48;;;;;;;16.89;76.27;99105.97;5011700;28;20029;-79
2023/06/07 05:23:43;;;;;;;16.17;11.93;;;;;;;16.32;81.14;99109.34;5006197;28;20227;-80
2023/06/07 05:26:09;;;;;;;13.23;10.10;;;;;;;16.35;79.33;99104.22;5015415;28;20033;-80
2023/06/07 05:28:35;;;;;;;19.70;13.27;;;;;;;16.14;84.10;99108.09;4993165;28;20116;-80
2023/06/07 05:31:01;;;;;;;17.25;13.05;;;;;;;15.71;87.54;99100.78;5014224;28;20033;-80
2023/06/07 05:33:30;;;;;;;18.77;14.32;;;;;;;15.77;88.23;99107.75;4994608;28;20045;-80
2023/06/07 05:35:57;;;;;;;14.65;13.07;;;;;;;15.90;87.16;99126.00;5015802;28;20033;-81
2023/06/07 05:38:22;;;;;;;18.80;14.63;;;;;;;15.81;88.24;99122.28;5014329;28;20033;-81
2023/06/07 05:40:48;;;;;;;15.93;14.32;;;;;;;15.63;88.81;99117.50;5013178;28;20488;-80
2023/06/07 05:43:13;;;;;;;23.02;14.50;;;;;;;15.46;89.50;99112.44;5013116;28;20042;-80
2023/06/07 05:45:40;;;;;;;17.52;14.85;;;;;;;15.70;88.27;99118.03;5007296;28;20038;-80
2023/06/07 05:48:06;;;;;;;18.55;15.82;;;;;;;15.67;89.90;99118.56;5014172;28;20025;-81
2023/06/07 05:50:31;;;;;;;18.35;14.85;;;;;;;15.96;87.43;99124.09;5011930;28;20460;-81
2023/06/07 05:52:57;;;;;;;13.27;11.70;;;;;;;15.87;86.90;99118.47;5005019;28;20073;-81
2023/06/07 05:55:29;;;;;;;19.05;14.93;;;;;;;15.81;89.59;99119.59;5024666;28;20398;-81
2023/06/07 05:57:57;;;;;;;16.48;14.60;;;;;;;16.02;87.41;99126.50;5009632;28;20041;-81
2023/06/07 06:00:22;;;;;;;20.38;14.40;;;;;;;16.35;84.43;99133.03;5003962;28;20053;-80
2023/06/07 06:02:48;;;;;;;12.60;10.60;;;;;;;16.41;81.62;99110.38;4996309;28;20086;-80
2023/06/07 06:05:15;;;;;;;21.50;15.93;;;;;;;15.85;87.44;99122.53;5014641;28;20033;-80
2023/06/07 06:07:41;;;;;;;16.13;13.80;;;;;;;15.93;87.93;99122.75;5012984;28;20026;-81
2023/06/07 06:10:07;;;;;;;18.75;15.43;;;;;;;15.80;89.18;99130.63;4991210;28;20030;-80
2023/06/07 06:12:33;;;;;;;14.90;12.52;;;;;;;16.29;85.13;99118.78;5007713;28;20038;-80
2023/06/07 06:15:00;;;;;;;11.60;10.40;;;;;;;16.69;80.81;99125.00;4994665;28;20048;-80
2023/06/07 06:17:26;;;;;;;13.73;11.90;;;;;;;16.71;84.50;99136.34;5010409;28;20079;-81
2023/06/07 06:19:51;;;;;;;17.23;14.02;;;;;;;16.33;86.21;99141.41;5013803;28;20029;-81
2023/06/07 06:22:16;;;;;;;18.63;13.55;;;;;;;16.46;86.96;99131.91;5011038;28;20060;-80
2023/06/07 06:24:42;;;;;;;18.48;13.45;;;;;;;16.34;87.42;99126.84;5007955;28;20426;-80
2023/06/07 06:27:09;;;;;;;17.17;14.95;;;;;;;16.32;87.28;99145.19;5004722;28;20046;-80
2023/06/07 06:29:35;;;;;;;12.65;10.73;;;;;;;16.81;82.21;99141.66;5000199;28;20026;-80
2023/06/07 06:32:00;;;;;;;18.95;14.13;;;;;;;16.73;86.39;99144.97;5006023;28;20433;-80
2023/06/07 06:34:28;;;;;;;13.18;10.82;;;;;;;17.00;80.88;99135.28;5025866;28;20022;-81
2023/06/07 06:36:54;;;;;;;12.32;10.73;;;;;;;17.25;80.73;99148.53;5023087;28;20033;-80
2023/06/07 06:39:19;;;;;;;20.60;15.18;;;;;;;16.99;85.59;99160.63;5010465;28;20029;-80
2023/06/07 06:41:45;;;;;;;18.70;13.80;;;;;;;16.97;84.08;99145.84;4993124;28;20026;-79
2023/06/07 06:44:11;;;;;;;17.95;14.50;;;;;;;17.04;84.99;99149.00;5007386;28;20026;-80
2023/06/07 06:46:36;;;;;;;12.85;11.55;;;;;;;16.98;84.06;99152.84;5003717;28;20390;-80
2023/06/07 06:49:02;;;;;;;16.13;14.43;;;;;;;17.01;84.89;99149.59;4994190;28;20073;-80
2023/06/07 06:51:28;;;;;;;16.88;15.10;;;;;;;17.09;83.80;99157.06;4975291;28;20053;-80
2023/06/07 06:53:53;;;;;;;13.00;11.63;;;;;;;17.44;82.10;99159.44;5006809;28;20042;-80
2023/06/07 06:56:19;;;;;;;19.30;15.15;;;;;;;17.01;83.90;99149.59;5020599;28;20087;-80
2023/06/07 06:58:46;;;;;;;16.90;14.43;;;;;;;16.93;85.08;99150.16;5008579;28;20025;-80
2023/06/07 07:01:13;;;;;;;17.45;15.32;;;;;;;16.79;85.57;99155.41;5009077;28;20034;-80
2023/06/07 07:03:40;;;;;;;15.52;13.98;;;;;;;16.66;85.24;99142.56;5013436;28;20524;-80
2023/06/07 07:06:07;;;;;;;14.60;13.20;;;;;;;16.83;85.06;99151.06;5005143;28;20037;-80
2023/06/07 07:08:34;;;;;;;17.45;12.27;;;;;;;17.11;82.90;99146.78;5014213;28;20053;-80
2023/06/07 07:10:59;;;;;;;18.88;14.27;;;;;;;16.97;83.65;99151.25;5010546;28;20037;-81
2023/06/07 07:13:25;;;;;;;15.82;14.05;;;;;;;17.12;84.70;99159.19;5009235;28;20029;-79
2023/06/07 07:15:50;;;;;;;17.33;14.13;;;;;;;17.09;83.37;99149.78;5010286;28;20040;-80
2023/06/07 07:18:15;;;;;;;15.77;13.70;;;;;;;16.97;84.33;99157.41;5009342;28;20073;-80
2023/06/07 07:20:41;;;;;;;20.23;14.25;;;;;;;16.85;83.44;99156.16;5011664;28;20040;-80
2023/06/07 07:23:06;;;;;;;15.98;13.05;;;;;;;16.87;84.06;99157.50;5015883;28;20040;-80
2023/06/07 07:25:32;;;;;;;16.80;13.23;;;;;;;16.81;83.50;99153.25;4994017;28;20033;-80
2023/06/07 07:27:57;;;;;;;15.65;13.98;;;;;;;16.85;82.83;99158.88;5010416;28;20030;-80
2023/06/07 07:30:23;;;;;;;14.23;12.70;;;;;;;17.00;83.17;99153.34;5009190;28;20034;-80
2023/06/07 07:32:48;;;;;;;17.65;13.32;;;;;;;16.94;82.73;99163.38;4990754;28;20042;-80
2023/06/07 07:35:14;;;;;;;15.73;13.15;;;;;;;17.17;83.01;99169.94;5005385;28;21027;-80
2023/06/07 07:37:39;;;;;;;14.13;11.55;;;;;;;17.42;81.63;99171.59;4996791;28;20029;-81
2023/06/07 07:40:08;;;;;;;16.13;11.70;;;;;;;17.28;80.46;99174.13;4996326;28;20073;-81
2023/06/07 07:42:34;;;;;;;14.73;11.35;;;;;;;17.36;79.83;99170.84;5025696;28;20109;-81
2023/06/07 07:44:59;;;;;;;15.73;11.27;;;;;;;17.41;79.51;99167.31;5009244;28;20117;-81
2023/06/07 07:47:24;;;;;;;14.63;12.10;;;;;;;17.35;78.08;99152.22;4990460;28;20040;-81
2023/06/07 07:49:51;;;;;;;14.02;10.75;;;;;;;17.73;79.11;99162.94;4976743;28;20037;-81
2023/06/07 07:52:17;;;;;;;18.95;11.93;;;;;;;17.68;76.46;99157.59;5006892;28;20144;-82
2023/06/07 07:54:43;;;;;;;12.73;11.25;;;;;;;17.71;77.00;99157.00;5012527;28;20066;-81
2023/06/07 07:57:08;;;;;;;11.95;10.70;;;;;;;17.80;76.72;99168.00;5004161;28;20034;-80
2023/06/07 07:59:34;;;;;;;12.52;10.15;;;;;;;17.77;76.67;99163.97;5005056;28;20032;-79
2023/06/07 08:01:59;;;;;;;12.25;10.95;;;;;;;17.94;76.39;99161.59;5007572;28;20038;-80
2023/06/07 08:04:25;;;;;;;11.38;10.20;;;;;;;18.07;77.03;99157.38;5014143;28;20088;-80
2023/06/07 08:06:50;;;;;;;12.90;9.15;;;;;;;18.46;75.58;99157.16;4994073;28;20060;-80
2023/06/07 08:09:17;;;;;;;12.57;10.43;;;;;;;18.21;73.79;99150.19;5011401;28;20485;-80
2023/06/07 08:11:42;;;;;;;11.70;10.25;;;;;;;18.40;74.40;99161.81;5015227;28;20033;-81
2023/06/07 08:14:08;;;;;;;15.18;10.38;;;;;;;18.57;74.01;99159.44;5006289;28;20128;-80
2023/06/07 08:16:33;;;;;;;12.77;9.80;;;;;;;18.54;73.73;99156.53;5010402;28;20041;-80
2023/06/07 08:18:59;;;;;;;12.57;10.63;;;;;;;18.73;73.21;99149.19;5007721;28;20038;-80
2023/06/07 08:21:25;;;;;;;13.70;12.07;;;;;;;18.85;73.64;99163.06;5027189;28;20032;-80
2023/06/07 08:23:53;;;;;;;14.77;10.57;;;;;;;19.10;73.69;99159.97;5012745;28;20030;-81
2023/06/07 08:26:19;;;;;;;13.55;10.80;;;;;;;18.98;74.98;99161.53;5007113;28;20053;-81
2023/06/07 08:28:44;;;;;;;11.57;9.93;;;;;;;18.89;74.78;99153.28;5015678;28;20038;-81
2023/06/07 08:31:11;;;;;;;11.98;10.00;;;;;;;19.00;75.13;99165.53;5016486;28;20120;-80
2023/06/07 08:33:37;;;;;;;17.17;12.38;;;;;;;18.68;76.76;99163.59;4993614;28;20049;-81
2023/06/07 08:36:03;;;;;;;10.18;8.65;;;;;;;19.22;74.56;99157.56;4996780;28;20088;-80
2023/06/07 08:38:28;;;;;;;19.52;13.00;;;;;;;19.00;76.15;99167.44;5017665;28;20022;-80
2023/06/07 08:40:55;;;;;;;17.73;12.05;;;;;;;18.85;75.72;99168.47;5010441;28;20078;-80
2023/06/07 08:43:21;;;;;;;20.10;12.85;;;;;;;18.85;75.96;99170.41;5007806;28;20041;-81
2023/06/07 08:45:47;;;;;;;15.45;11.88;;;;;;;18.84;75.77;99161.47;5009601;28;20038;-80
2023/06/07 08:48:13;;;;;;;15.80;13.38;;;;;;;18.63;76.17;99169.06;5009308;28;20119;-80
2023/06/07 08:50:41;;;;;;;19.63;12.55;;;;;;;18.70;75.34;99169.50;5006128;28;20046;-80
2023/06/07 08:53:12;;;;;;;13.13;11.82;;;;;;;19.00;74.18;99162.03;5008335;28;20057;-81
2023/06/07 08:55:38;;;;;;;19.35;11.70;;;;;;;19.13;73.66;99167.47;5008737;28;20058;-81
2023/06/07 08:58:09;;;;;;;15.68;11.43;;;;;;;19.13;72.95;99164.75;5012785;28;20523;-80
2023/06/07 09:00:36;;;;;;;15.95;11.85;;;;;;;19.34;72.74;99176.91;4991403;28;20038;-80
2023/06/07 09:03:02;;;;;;;15.02;11.20;;;;;;;19.25;71.75;99170.53;5010380;28;20030;-81
2023/06/07 09:05:27;;;;;;;17.02;11.73;;;;;;;19.69;72.63;99171.94;5012603;28;20418;-80
2023/06/07 09:07:53;;;;;;;15.95;11.23;;;;;;;19.89;71.95;99160.72;5009320;28;20034;-80
2023/06/07 09:10:18;;;;;;;14.60;10.20;;;;;;;20.03;71.52;99169.63;5009194;28;20263;-80
2023/06/07 09:12:45;;;;;;;19.38;12.07;;;;;;;20.25;70.87;99174.38;5012452;28;20033;-80
2023/06/07 09:15:17;;;;;;;14.00;11.23;;;;;;;20.25;70.36;99177.09;5012987;28;20030;-81
2023/06/07 09:18:01;;;;;;;14.63;10.02;;;;;;;20.56;69.36;99173.41;5007428;28;20014;-79
2023/06/07 09:20:30;;;;;;;11.88;9.82;;;;;;;20.73;69.65;99178.16;5004964;28;20029;-80
2023/06/07 09:23:11;;;;;;;12.40;9.85;;;;;;;20.56;68.33;99172.59;5014512;28;20029;-81
2023/06/07 09:25:39;;;;;;;14.15;10.55;;;;;;;20.45;67.29;99182.88;5010369;28;20029;-80
2023/06/07 09:28:10;;;;;;;12.07;9.70;;;;;;;20.27;67.63;99180.31;5009499;28;20026;-80
2023/06/07 09:30:55;;;;;;;17.65;10.30;;;;;;;20.19;68.71;99179.88;5008523;28;20490;-81
2023/06/07 09:33:31;;;;;;;9.75;8.75;;;;;;;20.15;68.19;99178.06;5009431;28;20090;-81
2023/06/07 09:36:06;;;;;;;;;;;;;;;20.07;68.47;99184.97;5015452;28;20034;-80
2023/06/07 09:38:33;;;;;;;16.80;10.13;;;;;;;20.24;68.85;99184.41;5016433;28;20008;-81
2023/06/07 09:41:00;;;;;;;16.05;10.50;;;;;;;20.09;69.49;99180.06;5016207;28;20393;-81
2023/06/07 09:43:25;;;;;;;12.48;9.63;;;;;;;20.17;69.32;99194.81;5017055;28;20026;-80
2023/06/07 09:45:56;;;;;;;12.27;10.60;;;;;;;20.08;70.30;99196.63;5019039;28;20037;-81
2023/06/07 09:48:22;;;;;;;13.30;10.43;;;;;;;20.21;69.35;99187.72;5009806;28;20049;-81
2023/06/07 09:51:00;;;;;;;10.98;9.00;;;;;;;20.36;69.03;99195.53;5017760;28;20018;-81
2023/06/07 09:53:27;;;;;;;9.85;7.75;;;;;;;20.44;64.54;99191.31;5012822;28;20097;-81
2023/06/07 09:55:52;;;;;;;7.03;6.32;;;;;;;20.46;63.40;99191.81;5016064;28;20338;-81
2023/06/07 09:58:19;;;;;;;8.77;6.95;;;;;;;20.40;62.66;99188.38;5010670;28;20080;-81
2023/06/07 10:00:45;;;;;;;12.18;7.40;;;;;;;20.52;62.02;99191.41;5017098;28;20447;-81
2023/06/07 10:03:12;;;;;;;9.80;7.47;;;;;;;20.54;63.35;99207.34;4999188;28;20026;-81
2023/06/07 10:05:39;;;;;;;10.93;7.55;;;;;;;20.55;64.70;99198.13;5015808;28;20022;-81
2023/06/07 10:08:05;;;;;;;7.80;7.03;;;;;;;20.76;64.14;99204.69;5011905;28;20053;-81
2023/06/07 10:10:32;;;;;;;9.32;7.47;;;;;;;20.83;64.94;99203.19;5016042;28;20029;-81
2023/06/07 10:13:02;;;;;;;9.77;7.15;;;;;;;20.79;64.35;99198.66;5014015;28;20026;-81
2023/06/07 10:15:29;;;;;;;8.40;6.82;;;;;;;20.75;64.81;99203.88;5013779;28;20494;-81
2023/06/07 10:18:05;;;;;;;10.13;6.47;;;;;;;20.61;65.19;99191.47;5003252;28;20375;-80
2023/06/07 10:20:35;;;;;;;8.55;7.72;;;;;;;20.42;66.28;99199.72;5010173;28;20029;-80
2023/06/07 10:23:07;;;;;;;13.20;8.48;;;;;;;20.39;66.92;99194.13;5013477;28;20025;-80
2023/06/07 10:25:39;;;;;;;12.75;7.95;;;;;;;20.29;69.35;99199.78;5010645;28;20386;-80
2023/06/07 10:28:25;;;;;;;9.65;8.32;;;;;;;20.23;68.30;99185.50;5008489;28;20381;-80
2023/06/07 10:31:05;;;;;;;12.32;8.13;;;;;;;20.28;68.72;99169.16;5014101;28;20072;-80
2023/06/07 10:33:32;;;;;;;10.38;7.20;;;;;;;20.30;69.91;99177.78;5008579;28;20418;-80
2023/06/07 10:35:58;;;;;;;10.90;8.90;;;;;;;19.77;69.01;99163.91;5009104;28;20483;-80
2023/06/07 10:38:24;;;;;;;8.90;7.70;;;;;;;19.54;67.37;99166.81;5012221;28;20021;-80
2023/06/07 10:40:51;;;;;;;12.55;8.07;;;;;;;19.58;68.92;99174.03;5010762;28;20036;-81
2023/06/07 10:43:18;;;;;;;10.55;8.38;;;;;;;19.42;70.13;99178.91;5010972;28;20037;-80
2023/06/07 10:45:43;;;;;;;14.23;8.52;;;;;;;19.35;69.06;99170.38;5010517;28;20025;-80
2023/06/07 10:48:32;;;;;;;9.00;7.75;;;;;;;19.34;67.99;99174.19;5006572;28;20092;-81
2023/06/07 10:50:58;;;;;;;8.32;7.57;;;;;;;19.71;68.65;99172.44;5013494;28;20137;-81
2023/06/07 10:53:24;;;;;;;8.88;7.57;;;;;;;20.10;66.75;99170.84;5007580;28;20557;-81
2023/06/07 10:55:49;;;;;;;8.18;7.20;;;;;;;20.01;66.76;99152.88;5011734;28;20034;-81
2023/06/07 10:58:29;;;;;;;10.25;7.32;;;;;;;20.05;65.72;99176.34;5000254;28;20105;-81
2023/06/07 11:00:55;;;;;;;10.88;7.65;;;;;;;19.90;65.09;99160.41;5002692;28;20034;-81
2023/06/07 11:03:23;;;;;;;8.10;7.20;;;;;;;19.83;64.59;99164.63;5005341;28;20086;-80
2023/06/07 11:05:52;;;;;;;10.80;7.45;;;;;;;19.76;65.97;99166.94;5007958;28;20405;-80
2023/06/07 11:08:28;;;;;;;9.13;7.35;;;;;;;19.91;65.06;99163.91;5010539;28;20069;-81
2023/06/07 11:11:04;;;;;;;10.48;7.30;;;;;;;20.37;65.11;99163.81;5008385;28;20120;-81
2023/06/07 11:13:38;;;;;;;6.50;5.90;;;;;;;20.42;63.53;99161.00;5008994;28;20513;-81
2023/06/07 11:16:36;;;;;;;7.38;5.85;;;;;;;20.73;61.25;99162.69;5003570;28;20485;-82
2023/06/07 11:19:09;;;;;;;9.55;6.47;;;;;;;20.57;60.87;99150.59;4975489;28;20038;-81
2023/06/07 11:21:53;;;;;;;8.32;6.47;;;;;;;21.01;61.47;99154.44;5008377;28;20088;-82
2023/06/07 11:24:20;;;;;;;9.45;6.97;;;;;;;20.81;60.27;99161.97;5008765;28;20025;-82